Portada
METAR-TAF:

METAR-TAF

Aeroports :

High Level, Alberta, Canadà

latitud: 58-37N, longitud: 117-10W, altitud: 338 m

Observació

L'informe es va fer fa 1 hora i 5 minuts, a les 00:00 UTC
Vent 12 kt del Nord/Nord-Oest amb ràfegues de 20 kt
Temperatura 13°C
Humitat 33%
Pressió 1011 hPa
Visibilitat: 24.1 km
Núvols disperses a una alçada de 7500 ft
Cel ennuvolat a una alçada de 9700 ft
Cel ennuvolat a una alçada de 26000 ft

METAR: CYOJ 170000Z 34012G20KT 15SM SCT075 BKN097 BKN260 13/M03 A2985 RMK CU3AC4CI1 CI TR SLP124

Hora: 19:05 (01:05 UTC)

Pronòstic

L'informe es va fer fa 25 minuts, a les 00:40 UTC
Pronòstic vàlid del 17 a les 01 UTC al 17 a les 13 UTC
Vent 10 kt del Nord amb ràfegues de 20 kt
Visibilitat: 10 km
Cel ennuvolat a una alçada de 8000 ft
Evolucionant progressivament
l' 17 a les 02 UTC al 17 a les 04 UTC
Vent 8 kt del Nord/Nord-Oest
Núvols disperses a una alçada de 6000 ft

TAF: CYOJ 170040Z 1701/1713 36010G20KT P6SM BKN080 BECMG 1702/1704 34008KT SCT060 RMK NXT FCST BY 170700Z

Observacions i pronòstics meteorològics de més de 4000 aeroports (METAR i TAF).

Les estacions disponibles són els punts grocs i vermells al mapa.

Posi el ratolí al punt desitjat per veure el nom de l'estació.

Feu clic per veure les observacions i els pronòstics meteorològics.

Per canviar el mapa: feu clic els botons verds amb una creu de color negre per apropar; al botó verd amb un guió per allunyar la imatge; o en les fletxes verdes per a mapes adjacents.


METAR-TAF: